Crystal Bay — V7BQ6 — position and weather

sailwx.info

Track history (hours):
 
Tides and Currents Weather Stations Pressure Air Temp Water Temp Dewpoint Dewpoint Depression Visibility Wind Speed Wind Dir Waves Ship Positions

Crystal Bay

Last reported at 2017-Dec-17 03:40 UTC. Time now 2017-Dec-17 06:37 UTC.
Position N 57°32' E 008°43'.

Length 183 m; draft 11.1 m.

Type: Ship. MMSI: 538005187.

Date/timePositionNaut miles runAvg speedWind from/ knotsBaromVisibWave heightAir tempDewpointWater temp
2017-Dec-17 03:40N 57°32' E 008°43'212.2
2017-Dec-17 03:29N 57°33' E 008°46'612.1
2017-Dec-17 02:59N 57°36' E 008°56'612.1
2017-Dec-17 02:30N 57°38' E 009°06'812.2
2017-Dec-17 01:52N 57°40' E 009°20'3412.9
2017-Dec-16 23:12N 57°48' E 010°23'212.6
2017-Dec-16 23:00N 57°48' E 010°27'612.4
2017-Dec-16 22:30N 57°48' E 010°39'611.6
2017-Dec-16 22:00N 57°45' E 010°49'510.0
2017-Dec-16 21:31N 57°43' E 010°57'612.0
2017-Dec-16 21:00N 57°39' E 011°05'612.5
2017-Dec-16 20:31N 57°34' E 011°14'612.6
2017-Dec-16 20:00N 57°30' E 011°22'612.4
2017-Dec-16 19:31N 57°25' E 011°28'612.6
2017-Dec-16 19:00N 57°18' E 011°31'612.4
2017-Dec-16 18:30N 57°13' E 011°35'612.4
2017-Dec-16 18:00N 57°07' E 011°40'612.3
2017-Dec-16 17:30N 57°01' E 011°43'10411.3
2017-Dec-16 08:18N 55°19' E 011°02'513.1
2017-Dec-16 07:56N 55°15' E 011°05'511.3
2017-Dec-16 07:30N 55°10' E 011°02'612.4
2017-Dec-16 07:00N 55°04' E 010°60'612.8
2017-Dec-16 06:30N 54°58' E 010°57'713.7
2017-Dec-16 06:00N 54°53' E 010°50'713.4
2017-Dec-16 05:30N 54°46' E 010°48'611.4
2017-Dec-16 05:00N 54°40' E 010°50'612.2
2017-Dec-16 04:30N 54°37' E 010°58'611.6
2017-Dec-16 04:00N 54°36' E 011°08'611.8
2017-Dec-16 03:31N 54°34' E 011°18'612.2
2017-Dec-16 03:01N 54°31' E 011°27'612.1
2017-Dec-16 02:31N 54°29' E 011°36'612.2
2017-Dec-16 02:00N 54°27' E 011°46'1610.9
2017-Dec-16 00:31N 54°31' E 012°13'011.9
2017-Dec-16 00:30N 54°31' E 012°14'510.3
2017-Dec-16 00:00N 54°36' E 012°16'5 9.8
2017-Dec-15 23:30N 54°38' E 012°23'4911.3
2017-Dec-15 19:11N 54°60' E 013°40'212.7
2017-Dec-15 19:00N 55°00' E 013°44'912.8
2017-Dec-15 18:16N 55°03' E 013°59'412.1
2017-Dec-15 17:56N 55°05' E 014°06'512.9
2017-Dec-15 17:30N 55°09' E 014°12'712.8
2017-Dec-15 17:00N 55°14' E 014°19'612.9
2017-Dec-15 16:31N 55°19' E 014°26'612.9
2017-Dec-15 16:00N 55°24' E 014°32'612.3
2017-Dec-15 15:31N 55°28' E 014°41'812.6
2017-Dec-15 14:54N 55°31' E 014°53'512.4
2017-Dec-15 14:30N 55°34' E 015°01'612.2
2017-Dec-15 14:01N 55°36' E 015°11'611.9
2017-Dec-15 13:30N 55°38' E 015°21'611.9
2017-Dec-15 13:01N 55°39' E 015°31'611.9
2017-Dec-15 12:31N 55°41' E 015°41'611.9
2017-Dec-15 12:00N 55°43' E 015°51'611.2
2017-Dec-15 11:31N 55°44' E 016°01'510.9
2017-Dec-15 11:00N 55°46' E 016°10'510.7
2017-Dec-15 10:30N 55°47' E 016°19'510.6
2017-Dec-15 10:00N 55°48' E 016°28'  
2017-Dec-09 06:10N 59°17' E 021°57'7610.3
2017-Dec-08 22:44N 59°46' E 024°17'311.6
2017-Dec-08 22:30N 59°47' E 024°22'611.4
2017-Dec-08 22:00N 59°48' E 024°33'611.6
2017-Dec-08 21:31N 59°49' E 024°44'611.6
2017-Dec-08 21:01N 59°51' E 024°56'611.5
2017-Dec-08 20:30N 59°52' E 025°07'611.7
2017-Dec-08 20:00N 59°53' E 025°18'611.9
2017-Dec-08 19:30N 59°54' E 025°30'2111.9
2017-Dec-08 17:42N 59°58' E 026°12'211.8
2017-Dec-08 17:31N 59°59' E 026°16'612.0
2017-Dec-08 17:00N 60°01' E 026°28'611.7
2017-Dec-08 16:30N 60°01' E 026°39'612.2
2017-Dec-08 16:00N 60°00' E 026°52'611.9
2017-Dec-08 15:30N 59°59' E 027°03'611.7
2017-Dec-08 15:01N 60°03' E 027°13'611.7
2017-Dec-08 14:30N 60°06' E 027°23'611.4
2017-Dec-08 14:01N 60°09' E 027°33'611.6
2017-Dec-08 13:30N 60°11' E 027°43'611.6
2017-Dec-08 13:00N 60°11' E 027°55'612.4
2017-Dec-08 12:30N 60°09' E 028°07'612.3
2017-Dec-08 12:00N 60°07' E 028°18'612.7
2017-Dec-08 11:31N 60°04' E 028°29'510.2
2017-Dec-08 11:00N 59°60' E 028°35'5 9.3
2017-Dec-08 10:31N 59°55' E 028°34'4 8.8
2017-Dec-08 10:01N 59°52' E 028°28'510.8
2017-Dec-08 09:30N 59°47' E 028°25'4 8.6
2017-Dec-08 09:00N 59°43' E 028°24'2 4.0
2017-Dec-08 08:30N 59°41' E 028°23'0 0.1
2017-Dec-08 07:55N 59°41' E 028°23'0 0.0
2017-Dec-08 07:25N 59°41' E 028°23'0 0.0
2017-Dec-08 06:55N 59°41' E 028°23'0 0.0
2017-Dec-08 06:25N 59°41' E 028°23'0 0.0
2017-Dec-08 05:58N 59°41' E 028°23'0 0.0
2017-Dec-08 05:28N 59°41' E 028°23'0 0.0
2017-Dec-08 04:55N 59°41' E 028°23'0 0.0
2017-Dec-08 04:28N 59°41' E 028°23'0 0.0
2017-Dec-08 03:55N 59°41' E 028°23'0 0.0
2017-Dec-08 03:28N 59°41' E 028°23'0 0.0
2017-Dec-08 02:58N 59°41' E 028°23'0 0.0
2017-Dec-08 02:28N 59°41' E 028°23'0 0.0
2017-Dec-08 01:58N 59°41' E 028°23'0 0.0
2017-Dec-08 01:28N 59°41' E 028°23'0 0.0
2017-Dec-08 00:58N 59°41' E 028°23'0 0.0
2017-Dec-08 00:28N 59°41' E 028°23'0 0.0
2017-Dec-07 23:58N 59°41' E 028°23'0 0.0
2017-Dec-07 23:28N 59°41' E 028°23'0 0.0
2017-Dec-07 22:49N 59°41' E 028°23'0 0.0
2017-Dec-07 22:19N 59°41' E 028°23'0 0.0
2017-Dec-07 21:46N 59°41' E 028°23'0 0.0
2017-Dec-07 21:22N 59°41' E 028°23'0 0.0
2017-Dec-07 20:52N 59°41' E 028°23'0 0.0
2017-Dec-07 20:22N 59°41' E 028°23'0 0.0
2017-Dec-07 19:52N 59°41' E 028°23'0 0.0
2017-Dec-07 19:22N 59°41' E 028°23'0 0.0
2017-Dec-07 18:52N 59°41' E 028°23'0 0.0
2017-Dec-07 18:25N 59°41' E 028°23'0 0.0
2017-Dec-07 17:55N 59°41' E 028°23'0 0.0
2017-Dec-07 17:25N 59°41' E 028°23'0 0.0
2017-Dec-07 16:55N 59°41' E 028°23'0 0.0
2017-Dec-07 16:25N 59°41' E 028°23'0 0.0
2017-Dec-07 15:58N 59°41' E 028°23'0 0.0
2017-Dec-07 15:28N 59°41' E 028°23'0 0.0
2017-Dec-07 14:58N 59°41' E 028°23'0 0.0
2017-Dec-07 14:28N 59°41' E 028°23'0 0.0
2017-Dec-07 13:58N 59°41' E 028°23'0 0.0
2017-Dec-07 13:28N 59°41' E 028°23'0 0.0
2017-Dec-07 12:58N 59°41' E 028°23'0 0.0
2017-Dec-07 12:28N 59°41' E 028°23'0 0.0
2017-Dec-07 11:58N 59°41' E 028°23'0 0.0
2017-Dec-07 11:28N 59°41' E 028°23'0 0.0
2017-Dec-07 10:58N 59°41' E 028°23'0 0.0
2017-Dec-07 10:28N 59°41' E 028°23'0 0.0
2017-Dec-07 09:58N 59°41' E 028°23'0 0.0
2017-Dec-07 09:28N 59°41' E 028°23'0 0.0
2017-Dec-07 08:50N 59°41' E 028°23'0 0.0
2017-Dec-07 08:30N 59°41' E 028°23'0 0.0
2017-Dec-07 08:00N 59°41' E 028°23'1 2.1
2017-Dec-07 07:30N 59°41' E 028°24'4 7.3
2017-Dec-07 07:00N 59°45' E 028°24'510.3
2017-Dec-07 06:30N 59°50' E 028°26'611.0
2017-Dec-07 06:00N 59°55' E 028°32'3 6.5
2017-Dec-07 05:31N 59°58' E 028°34'5 9.4
2017-Dec-07 05:00N 60°02' E 028°32'612.0
2017-Dec-07 04:30N 60°05' E 028°21'5 9.4
2017-Dec-07 04:01N 60°08' E 028°13'  
Track history (hours):
 
Tides and Currents Weather Stations Pressure Air Temp Water Temp Dewpoint Dewpoint Depression Visibility Wind Speed Wind Dir Waves Ship Positions

Crystal Bay

Last reported at 2017-Dec-17 03:40 UTC. Time now 2017-Dec-17 06:37 UTC.
Position N 57°32' E 008°43'.

Length 183 m; draft 11.1 m.

Type: Ship. MMSI: 538005187.

Date/timePositionNaut miles runAvg speedWind from/ knotsBaromVisibWave heightAir tempDewpointWater temp
2017-Dec-17 03:40N 57°32' E 008°43'212.2
2017-Dec-17 03:29N 57°33' E 008°46'612.1
2017-Dec-17 02:59N 57°36' E 008°56'612.1
2017-Dec-17 02:30N 57°38' E 009°06'812.2
2017-Dec-17 01:52N 57°40' E 009°20'3412.9
2017-Dec-16 23:12N 57°48' E 010°23'212.6
2017-Dec-16 23:00N 57°48' E 010°27'612.4
2017-Dec-16 22:30N 57°48' E 010°39'611.6
2017-Dec-16 22:00N 57°45' E 010°49'510.0
2017-Dec-16 21:31N 57°43' E 010°57'612.0
2017-Dec-16 21:00N 57°39' E 011°05'612.5
2017-Dec-16 20:31N 57°34' E 011°14'612.6
2017-Dec-16 20:00N 57°30' E 011°22'612.4
2017-Dec-16 19:31N 57°25' E 011°28'612.6
2017-Dec-16 19:00N 57°18' E 011°31'612.4
2017-Dec-16 18:30N 57°13' E 011°35'612.4
2017-Dec-16 18:00N 57°07' E 011°40'612.3
2017-Dec-16 17:30N 57°01' E 011°43'10411.3
2017-Dec-16 08:18N 55°19' E 011°02'513.1
2017-Dec-16 07:56N 55°15' E 011°05'511.3
2017-Dec-16 07:30N 55°10' E 011°02'612.4
2017-Dec-16 07:00N 55°04' E 010°60'612.8
2017-Dec-16 06:30N 54°58' E 010°57'713.7
2017-Dec-16 06:00N 54°53' E 010°50'713.4
2017-Dec-16 05:30N 54°46' E 010°48'611.4
2017-Dec-16 05:00N 54°40' E 010°50'612.2
2017-Dec-16 04:30N 54°37' E 010°58'611.6
2017-Dec-16 04:00N 54°36' E 011°08'611.8
2017-Dec-16 03:31N 54°34' E 011°18'612.2
2017-Dec-16 03:01N 54°31' E 011°27'612.1
2017-Dec-16 02:31N 54°29' E 011°36'612.2
2017-Dec-16 02:00N 54°27' E 011°46'1610.9
2017-Dec-16 00:31N 54°31' E 012°13'011.9
2017-Dec-16 00:30N 54°31' E 012°14'510.3
2017-Dec-16 00:00N 54°36' E 012°16'5 9.8
2017-Dec-15 23:30N 54°38' E 012°23'4911.3
2017-Dec-15 19:11N 54°60' E 013°40'212.7
2017-Dec-15 19:00N 55°00' E 013°44'912.8
2017-Dec-15 18:16N 55°03' E 013°59'412.1
2017-Dec-15 17:56N 55°05' E 014°06'512.9
2017-Dec-15 17:30N 55°09' E 014°12'712.8
2017-Dec-15 17:00N 55°14' E 014°19'612.9
2017-Dec-15 16:31N 55°19' E 014°26'612.9
2017-Dec-15 16:00N 55°24' E 014°32'612.3
2017-Dec-15 15:31N 55°28' E 014°41'812.6
2017-Dec-15 14:54N 55°31' E 014°53'512.4
2017-Dec-15 14:30N 55°34' E 015°01'612.2
2017-Dec-15 14:01N 55°36' E 015°11'611.9
2017-Dec-15 13:30N 55°38' E 015°21'611.9
2017-Dec-15 13:01N 55°39' E 015°31'611.9
2017-Dec-15 12:31N 55°41' E 015°41'611.9
2017-Dec-15 12:00N 55°43' E 015°51'611.2
2017-Dec-15 11:31N 55°44' E 016°01'510.9
2017-Dec-15 11:00N 55°46' E 016°10'510.7
2017-Dec-15 10:30N 55°47' E 016°19'510.6
2017-Dec-15 10:00N 55°48' E 016°28'  
2017-Dec-09 06:10N 59°17' E 021°57'7610.3
2017-Dec-08 22:44N 59°46' E 024°17'311.6
2017-Dec-08 22:30N 59°47' E 024°22'611.4
2017-Dec-08 22:00N 59°48' E 024°33'611.6
2017-Dec-08 21:31N 59°49' E 024°44'611.6
2017-Dec-08 21:01N 59°51' E 024°56'611.5
2017-Dec-08 20:30N 59°52' E 025°07'611.7
2017-Dec-08 20:00N 59°53' E 025°18'611.9
2017-Dec-08 19:30N 59°54' E 025°30'2111.9
2017-Dec-08 17:42N 59°58' E 026°12'211.8
2017-Dec-08 17:31N 59°59' E 026°16'612.0
2017-Dec-08 17:00N 60°01' E 026°28'611.7
2017-Dec-08 16:30N 60°01' E 026°39'612.2
2017-Dec-08 16:00N 60°00' E 026°52'611.9
2017-Dec-08 15:30N 59°59' E 027°03'611.7
2017-Dec-08 15:01N 60°03' E 027°13'611.7
2017-Dec-08 14:30N 60°06' E 027°23'611.4
2017-Dec-08 14:01N 60°09' E 027°33'611.6
2017-Dec-08 13:30N 60°11' E 027°43'611.6
2017-Dec-08 13:00N 60°11' E 027°55'612.4
2017-Dec-08 12:30N 60°09' E 028°07'612.3
2017-Dec-08 12:00N 60°07' E 028°18'612.7
2017-Dec-08 11:31N 60°04' E 028°29'510.2
2017-Dec-08 11:00N 59°60' E 028°35'5 9.3
2017-Dec-08 10:31N 59°55' E 028°34'4 8.8
2017-Dec-08 10:01N 59°52' E 028°28'510.8
2017-Dec-08 09:30N 59°47' E 028°25'4 8.6
2017-Dec-08 09:00N 59°43' E 028°24'2 4.0
2017-Dec-08 08:30N 59°41' E 028°23'0 0.1
2017-Dec-08 07:55N 59°41' E 028°23'0 0.0
2017-Dec-08 07:25N 59°41' E 028°23'0 0.0
2017-Dec-08 06:55N 59°41' E 028°23'0 0.0
2017-Dec-08 06:25N 59°41' E 028°23'0 0.0
2017-Dec-08 05:58N 59°41' E 028°23'0 0.0
2017-Dec-08 05:28N 59°41' E 028°23'0 0.0
2017-Dec-08 04:55N 59°41' E 028°23'0 0.0
2017-Dec-08 04:28N 59°41' E 028°23'0 0.0
2017-Dec-08 03:55N 59°41' E 028°23'0 0.0
2017-Dec-08 03:28N 59°41' E 028°23'0 0.0
2017-Dec-08 02:58N 59°41' E 028°23'0 0.0
2017-Dec-08 02:28N 59°41' E 028°23'0 0.0
2017-Dec-08 01:58N 59°41' E 028°23'0 0.0
2017-Dec-08 01:28N 59°41' E 028°23'0 0.0
2017-Dec-08 00:58N 59°41' E 028°23'0 0.0
2017-Dec-08 00:28N 59°41' E 028°23'0 0.0
2017-Dec-07 23:58N 59°41' E 028°23'0 0.0
2017-Dec-07 23:28N 59°41' E 028°23'0 0.0
2017-Dec-07 22:49N 59°41' E 028°23'0 0.0
2017-Dec-07 22:19N 59°41' E 028°23'0 0.0
2017-Dec-07 21:46N 59°41' E 028°23'0 0.0
2017-Dec-07 21:22N 59°41' E 028°23'0 0.0
2017-Dec-07 20:52N 59°41' E 028°23'0 0.0
2017-Dec-07 20:22N 59°41' E 028°23'0 0.0
2017-Dec-07 19:52N 59°41' E 028°23'0 0.0
2017-Dec-07 19:22N 59°41' E 028°23'0 0.0
2017-Dec-07 18:52N 59°41' E 028°23'0 0.0
2017-Dec-07 18:25N 59°41' E 028°23'0 0.0
2017-Dec-07 17:55N 59°41' E 028°23'0 0.0
2017-Dec-07 17:25N 59°41' E 028°23'0 0.0
2017-Dec-07 16:55N 59°41' E 028°23'0 0.0
2017-Dec-07 16:25N 59°41' E 028°23'0 0.0
2017-Dec-07 15:58N 59°41' E 028°23'0 0.0
2017-Dec-07 15:28N 59°41' E 028°23'0 0.0
2017-Dec-07 14:58N 59°41' E 028°23'0 0.0
2017-Dec-07 14:28N 59°41' E 028°23'0 0.0
2017-Dec-07 13:58N 59°41' E 028°23'0 0.0
2017-Dec-07 13:28N 59°41' E 028°23'0 0.0
2017-Dec-07 12:58N 59°41' E 028°23'0 0.0
2017-Dec-07 12:28N 59°41' E 028°23'0 0.0
2017-Dec-07 11:58N 59°41' E 028°23'0 0.0
2017-Dec-07 11:28N 59°41' E 028°23'0 0.0
2017-Dec-07 10:58N 59°41' E 028°23'0 0.0
2017-Dec-07 10:28N 59°41' E 028°23'0 0.0
2017-Dec-07 09:58N 59°41' E 028°23'0 0.0
2017-Dec-07 09:28N 59°41' E 028°23'0 0.0
2017-Dec-07 08:50N 59°41' E 028°23'0 0.0
2017-Dec-07 08:30N 59°41' E 028°23'0 0.0
2017-Dec-07 08:00N 59°41' E 028°23'1 2.1
2017-Dec-07 07:30N 59°41' E 028°24'4 7.3
2017-Dec-07 07:00N 59°45' E 028°24'510.3
2017-Dec-07 06:30N 59°50' E 028°26'611.0
2017-Dec-07 06:00N 59°55' E 028°32'3 6.5
2017-Dec-07 05:31N 59°58' E 028°34'5 9.4
2017-Dec-07 05:00N 60°02' E 028°32'612.0
2017-Dec-07 04:30N 60°05' E 028°21'5 9.4
2017-Dec-07 04:01N 60°08' E 028°13'  

Dump ship's entire track history